sensor_id;sensor_type;location;lat;lon;timestamp;P1;durP1;ratioP1;P2;durP2;ratioP2
63817;SDS011;53093;55.092;73.476;2022-10-22T00:00:34;17.90;;;7.88;;
63817;SDS011;53093;55.092;73.476;2022-10-22T00:03:01;23.92;;;8.32;;
63817;SDS011;53093;55.092;73.476;2022-10-22T00:05:27;22.02;;;8.45;;
63817;SDS011;53093;55.092;73.476;2022-10-22T00:07:54;24.80;;;9.00;;
63817;SDS011;53093;55.092;73.476;2022-10-22T00:10:26;20.88;;;8.75;;
63817;SDS011;53093;55.092;73.476;2022-10-22T00:12:54;22.95;;;8.48;;
63817;SDS011;53093;55.092;73.476;2022-10-22T00:15:20;23.10;;;8.43;;
63817;SDS011;53093;55.092;73.476;2022-10-22T00:17:47;19.60;;;8.50;;
63817;SDS011;53093;55.092;73.476;2022-10-22T00:20:15;21.33;;;8.60;;
63817;SDS011;53093;55.092;73.476;2022-10-22T00:22:52;22.05;;;8.25;;
63817;SDS011;53093;55.092;73.476;2022-10-22T00:25:19;24.77;;;8.82;;
63817;SDS011;53093;55.092;73.476;2022-10-22T00:27:46;21.23;;;7.68;;
63817;SDS011;53093;55.092;73.476;2022-10-22T00:30:13;23.45;;;8.57;;
63817;SDS011;53093;55.092;73.476;2022-10-22T00:32:40;18.30;;;7.88;;
63817;SDS011;53093;55.092;73.476;2022-10-22T00:35:07;24.77;;;8.80;;
63817;SDS011;53093;55.092;73.476;2022-10-22T00:37:34;22.42;;;9.82;;
63817;SDS011;53093;55.092;73.476;2022-10-22T00:40:00;25.08;;;9.50;;
63817;SDS011;53093;55.092;73.476;2022-10-22T00:42:28;25.30;;;9.35;;
63817;SDS011;53093;55.092;73.476;2022-10-22T00:45:09;21.38;;;9.40;;
63817;SDS011;53093;55.092;73.476;2022-10-22T00:47:57;29.05;;;9.40;;
63817;SDS011;53093;55.092;73.476;2022-10-22T00:52:55;24.45;;;10.05;;
63817;SDS011;53093;55.092;73.476;2022-10-22T00:55:23;20.90;;;9.07;;
63817;SDS011;53093;55.092;73.476;2022-10-22T00:57:52;22.02;;;9.10;;
63817;SDS011;53093;55.092;73.476;2022-10-22T01:00:20;24.52;;;9.45;;
63817;SDS011;53093;55.092;73.476;2022-10-22T01:02:47;24.90;;;9.35;;
63817;SDS011;53093;55.092;73.476;2022-10-22T01:05:15;21.58;;;9.32;;
63817;SDS011;53093;55.092;73.476;2022-10-22T01:07:44;27.83;;;10.80;;
63817;SDS011;53093;55.092;73.476;2022-10-22T01:20:26;23.70;;;9.07;;
63817;SDS011;53093;55.092;73.476;2022-10-22T01:25:34;24.38;;;8.73;;
63817;SDS011;53093;55.092;73.476;2022-10-22T01:30:48;25.15;;;9.30;;
63817;SDS011;53093;55.092;73.476;2022-10-22T01:33:16;23.65;;;9.63;;
63817;SDS011;53093;55.092;73.476;2022-10-22T01:35:54;21.85;;;8.82;;
63817;SDS011;53093;55.092;73.476;2022-10-22T01:38:22;21.95;;;9.88;;
63817;SDS011;53093;55.092;73.476;2022-10-22T01:40:50;21.88;;;8.73;;
63817;SDS011;53093;55.092;73.476;2022-10-22T01:43:17;25.08;;;9.50;;
63817;SDS011;53093;55.092;73.476;2022-10-22T01:45:46;24.48;;;9.10;;
63817;SDS011;53093;55.092;73.476;2022-10-22T02:06:27;16.75;;;8.75;;
63817;SDS011;53093;55.092;73.476;2022-10-22T02:08:55;17.00;;;8.52;;
63817;SDS011;53093;55.092;73.476;2022-10-22T02:11:23;23.15;;;9.45;;
63817;SDS011;53093;55.092;73.476;2022-10-22T02:13:51;17.17;;;8.77;;
63817;SDS011;53093;55.092;73.476;2022-10-22T02:16:24;18.35;;;8.75;;
63817;SDS011;53093;55.092;73.476;2022-10-22T02:18:54;17.00;;;8.25;;
63817;SDS011;53093;55.092;73.476;2022-10-22T02:21:22;17.05;;;8.90;;
63817;SDS011;53093;55.092;73.476;2022-10-22T02:23:49;21.15;;;8.98;;
63817;SDS011;53093;55.092;73.476;2022-10-22T02:26:32;14.07;;;7.97;;
63817;SDS011;53093;55.092;73.476;2022-10-22T02:29:11;19.80;;;9.47;;
63817;SDS011;53093;55.092;73.476;2022-10-22T02:31:40;14.90;;;8.43;;
63817;SDS011;53093;55.092;73.476;2022-10-22T02:34:10;15.27;;;8.63;;
63817;SDS011;53093;55.092;73.476;2022-10-22T02:36:40;14.00;;;8.57;;
63817;SDS011;53093;55.092;73.476;2022-10-22T02:39:08;15.18;;;8.43;;
63817;SDS011;53093;55.092;73.476;2022-10-22T02:41:36;14.63;;;7.72;;
63817;SDS011;53093;55.092;73.476;2022-10-22T02:44:06;11.73;;;7.57;;
63817;SDS011;53093;55.092;73.476;2022-10-22T02:46:33;10.68;;;6.50;;
63817;SDS011;53093;55.092;73.476;2022-10-22T02:49:00;10.18;;;6.15;;
63817;SDS011;53093;55.092;73.476;2022-10-22T02:51:27;9.50;;;5.88;;
63817;SDS011;53093;55.092;73.476;2022-10-22T02:53:54;7.25;;;5.72;;
63817;SDS011;53093;55.092;73.476;2022-10-22T02:56:21;7.25;;;5.38;;
63817;SDS011;53093;55.092;73.476;2022-10-22T02:58:48;5.68;;;5.07;;
63817;SDS011;53093;55.092;73.476;2022-10-22T03:01:15;7.03;;;5.28;;
63817;SDS011;53093;55.092;73.476;2022-10-22T03:03:42;6.72;;;5.40;;
63817;SDS011;53093;55.092;73.476;2022-10-22T03:06:08;6.38;;;4.82;;
63817;SDS011;53093;55.092;73.476;2022-10-22T03:08:35;7.18;;;5.25;;
63817;SDS011;53093;55.092;73.476;2022-10-22T03:11:12;6.20;;;5.20;;
63817;SDS011;53093;55.092;73.476;2022-10-22T03:13:39;5.68;;;4.85;;
63817;SDS011;53093;55.092;73.476;2022-10-22T03:16:06;5.93;;;4.97;;
63817;SDS011;53093;55.092;73.476;2022-10-22T03:18:33;7.15;;;5.47;;
63817;SDS011;53093;55.092;73.476;2022-10-22T03:21:22;7.10;;;5.32;;
63817;SDS011;53093;55.092;73.476;2022-10-22T03:23:55;7.90;;;5.45;;
63817;SDS011;53093;55.092;73.476;2022-10-22T03:26:22;6.80;;;5.18;;
63817;SDS011;53093;55.092;73.476;2022-10-22T03:28:50;6.28;;;5.53;;
63817;SDS011;53093;55.092;73.476;2022-10-22T03:31:17;8.15;;;5.95;;
63817;SDS011;53093;55.092;73.476;2022-10-22T03:33:44;7.15;;;5.75;;
63817;SDS011;53093;55.092;73.476;2022-10-22T03:36:15;7.30;;;6.30;;
63817;SDS011;53093;55.092;73.476;2022-10-22T03:38:52;6.88;;;5.65;;
63817;SDS011;53093;55.092;73.476;2022-10-22T03:41:19;8.70;;;6.03;;
63817;SDS011;53093;55.092;73.476;2022-10-22T03:43:46;7.00;;;6.30;;
63817;SDS011;53093;55.092;73.476;2022-10-22T03:46:17;7.18;;;5.85;;
63817;SDS011;53093;55.092;73.476;2022-10-22T03:48:44;7.45;;;6.47;;
63817;SDS011;53093;55.092;73.476;2022-10-22T03:51:11;8.07;;;6.10;;
63817;SDS011;53093;55.092;73.476;2022-10-22T03:53:38;8.82;;;5.93;;
63817;SDS011;53093;55.092;73.476;2022-10-22T03:56:08;7.43;;;5.95;;
63817;SDS011;53093;55.092;73.476;2022-10-22T03:58:39;7.03;;;6.32;;
63817;SDS011;53093;55.092;73.476;2022-10-22T04:01:17;8.02;;;6.00;;
63817;SDS011;53093;55.092;73.476;2022-10-22T04:03:43;8.75;;;6.15;;
63817;SDS011;53093;55.092;73.476;2022-10-22T04:06:11;7.50;;;6.32;;
63817;SDS011;53093;55.092;73.476;2022-10-22T04:08:39;8.05;;;5.90;;
63817;SDS011;53093;55.092;73.476;2022-10-22T04:11:09;8.05;;;6.13;;
63817;SDS011;53093;55.092;73.476;2022-10-22T04:13:36;6.80;;;6.10;;
63817;SDS011;53093;55.092;73.476;2022-10-22T04:16:14;8.13;;;6.07;;
63817;SDS011;53093;55.092;73.476;2022-10-22T04:18:41;8.43;;;6.50;;
63817;SDS011;53093;55.092;73.476;2022-10-22T04:21:09;7.22;;;6.45;;
63817;SDS011;53093;55.092;73.476;2022-10-22T04:23:36;7.88;;;6.05;;
63817;SDS011;53093;55.092;73.476;2022-10-22T04:26:05;7.18;;;6.22;;
63817;SDS011;53093;55.092;73.476;2022-10-22T04:28:33;8.15;;;6.35;;
63817;SDS011;53093;55.092;73.476;2022-10-22T04:31:05;7.70;;;6.35;;
63817;SDS011;53093;55.092;73.476;2022-10-22T04:33:33;6.93;;;6.18;;
63817;SDS011;53093;55.092;73.476;2022-10-22T04:35:59;7.00;;;6.30;;
63817;SDS011;53093;55.092;73.476;2022-10-22T04:38:31;8.32;;;6.30;;
63817;SDS011;53093;55.092;73.476;2022-10-22T04:41:09;7.07;;;5.82;;
63817;SDS011;53093;55.092;73.476;2022-10-22T04:43:36;7.45;;;6.38;;
63817;SDS011;53093;55.092;73.476;2022-10-22T04:46:03;7.13;;;5.63;;
63817;SDS011;53093;55.092;73.476;2022-10-22T04:48:30;7.22;;;6.15;;
63817;SDS011;53093;55.092;73.476;2022-10-22T04:50:57;7.20;;;5.60;;
63817;SDS011;53093;55.092;73.476;2022-10-22T04:53:34;9.65;;;5.93;;
63817;SDS011;53093;55.092;73.476;2022-10-22T04:56:18;6.68;;;5.45;;
63817;SDS011;53093;55.092;73.476;2022-10-22T04:58:49;7.95;;;5.47;;
63817;SDS011;53093;55.092;73.476;2022-10-22T05:01:23;7.43;;;5.30;;
63817;SDS011;53093;55.092;73.476;2022-10-22T05:03:50;6.80;;;5.53;;
63817;SDS011;53093;55.092;73.476;2022-10-22T05:06:22;6.43;;;5.28;;
63817;SDS011;53093;55.092;73.476;2022-10-22T05:08:56;6.43;;;5.38;;
63817;SDS011;53093;55.092;73.476;2022-10-22T05:11:24;7.60;;;5.70;;
63817;SDS011;53093;55.092;73.476;2022-10-22T05:13:56;7.03;;;5.90;;
63817;SDS011;53093;55.092;73.476;2022-10-22T05:16:25;7.93;;;5.75;;
63817;SDS011;53093;55.092;73.476;2022-10-22T05:18:53;6.25;;;5.28;;
63817;SDS011;53093;55.092;73.476;2022-10-22T05:21:20;5.38;;;4.47;;
63817;SDS011;53093;55.092;73.476;2022-10-22T05:23:55;6.50;;;4.90;;
63817;SDS011;53093;55.092;73.476;2022-10-22T05:26:29;7.23;;;4.73;;
63817;SDS011;53093;55.092;73.476;2022-10-22T05:28:56;6.70;;;4.72;;
63817;SDS011;53093;55.092;73.476;2022-10-22T05:31:28;5.15;;;4.65;;
63817;SDS011;53093;55.092;73.476;2022-10-22T05:33:55;6.03;;;4.72;;
63817;SDS011;53093;55.092;73.476;2022-10-22T05:36:22;6.57;;;5.07;;
63817;SDS011;53093;55.092;73.476;2022-10-22T05:38:54;6.03;;;4.43;;
63817;SDS011;53093;55.092;73.476;2022-10-22T05:41:23;8.40;;;5.03;;
63817;SDS011;53093;55.092;73.476;2022-10-22T05:43:56;6.50;;;4.53;;
63817;SDS011;53093;55.092;73.476;2022-10-22T05:46:25;4.68;;;4.18;;
63817;SDS011;53093;55.092;73.476;2022-10-22T05:49:03;4.75;;;3.85;;
63817;SDS011;53093;55.092;73.476;2022-10-22T05:51:31;5.05;;;4.10;;
63817;SDS011;53093;55.092;73.476;2022-10-22T05:53:59;5.70;;;3.95;;
63817;SDS011;53093;55.092;73.476;2022-10-22T05:56:27;4.97;;;4.05;;
63817;SDS011;53093;55.092;73.476;2022-10-22T05:58:54;5.68;;;4.22;;
63817;SDS011;53093;55.092;73.476;2022-10-22T06:01:23;4.85;;;4.35;;
63817;SDS011;53093;55.092;73.476;2022-10-22T06:03:54;4.72;;;4.13;;
63817;SDS011;53093;55.092;73.476;2022-10-22T06:06:34;6.68;;;4.05;;
63817;SDS011;53093;55.092;73.476;2022-10-22T06:09:06;4.30;;;3.72;;
63817;SDS011;53093;55.092;73.476;2022-10-22T06:11:33;8.52;;;4.25;;
63817;SDS011;53093;55.092;73.476;2022-10-22T06:14:00;3.88;;;3.45;;
63817;SDS011;53093;55.092;73.476;2022-10-22T06:16:27;4.60;;;3.80;;
63817;SDS011;53093;55.092;73.476;2022-10-22T06:18:55;4.88;;;4.15;;
63817;SDS011;53093;55.092;73.476;2022-10-22T06:21:22;4.75;;;4.00;;
63817;SDS011;53093;55.092;73.476;2022-10-22T06:23:57;4.75;;;4.15;;
63817;SDS011;53093;55.092;73.476;2022-10-22T06:26:24;7.30;;;4.22;;
63817;SDS011;53093;55.092;73.476;2022-10-22T06:28:51;5.68;;;4.18;;
63817;SDS011;53093;55.092;73.476;2022-10-22T06:31:18;5.07;;;4.18;;
63817;SDS011;53093;55.092;73.476;2022-10-22T06:33:48;5.20;;;4.28;;
63817;SDS011;53093;55.092;73.476;2022-10-22T06:36:19;31.02;;;13.80;;
63817;SDS011;53093;55.092;73.476;2022-10-22T06:38:46;38.85;;;19.05;;
63817;SDS011;53093;55.092;73.476;2022-10-22T06:41:15;15.40;;;10.55;;
63817;SDS011;53093;55.092;73.476;2022-10-22T06:43:42;7.72;;;5.72;;
63817;SDS011;53093;55.092;73.476;2022-10-22T06:46:14;8.55;;;5.30;;
63817;SDS011;53093;55.092;73.476;2022-10-22T06:48:41;8.32;;;5.43;;
63817;SDS011;53093;55.092;73.476;2022-10-22T06:51:09;5.65;;;5.05;;
63817;SDS011;53093;55.092;73.476;2022-10-22T06:53:37;5.45;;;4.80;;
63817;SDS011;53093;55.092;73.476;2022-10-22T06:56:12;7.45;;;6.28;;
63817;SDS011;53093;55.092;73.476;2022-10-22T06:58:39;4.72;;;4.22;;
63817;SDS011;53093;55.092;73.476;2022-10-22T07:01:07;7.05;;;4.47;;
63817;SDS011;53093;55.092;73.476;2022-10-22T07:03:35;6.40;;;4.70;;
63817;SDS011;53093;55.092;73.476;2022-10-22T07:06:04;5.13;;;4.30;;
63817;SDS011;53093;55.092;73.476;2022-10-22T07:08:41;5.10;;;4.60;;
63817;SDS011;53093;55.092;73.476;2022-10-22T07:11:12;8.68;;;4.55;;
63817;SDS011;53093;55.092;73.476;2022-10-22T07:13:40;5.07;;;4.43;;
63817;SDS011;53093;55.092;73.476;2022-10-22T07:16:07;5.40;;;4.43;;
63817;SDS011;53093;55.092;73.476;2022-10-22T07:18:34;7.70;;;4.65;;
63817;SDS011;53093;55.092;73.476;2022-10-22T07:21:01;4.93;;;4.20;;
63817;SDS011;53093;55.092;73.476;2022-10-22T07:23:28;4.72;;;4.25;;
63817;SDS011;53093;55.092;73.476;2022-10-22T07:25:56;6.75;;;4.78;;
63817;SDS011;53093;55.092;73.476;2022-10-22T07:28:23;9.35;;;5.82;;
63817;SDS011;53093;55.092;73.476;2022-10-22T07:30:50;9.65;;;6.57;;
63817;SDS011;53093;55.092;73.476;2022-10-22T07:33:17;7.35;;;5.35;;
63817;SDS011;53093;55.092;73.476;2022-10-22T07:35:44;12.68;;;10.68;;
63817;SDS011;53093;55.092;73.476;2022-10-22T07:38:14;10.20;;;6.72;;
63817;SDS011;53093;55.092;73.476;2022-10-22T07:40:41;11.48;;;6.95;;
63817;SDS011;53093;55.092;73.476;2022-10-22T07:43:08;6.93;;;4.60;;
63817;SDS011;53093;55.092;73.476;2022-10-22T07:45:35;4.93;;;4.07;;
63817;SDS011;53093;55.092;73.476;2022-10-22T07:48:02;11.20;;;5.90;;
63817;SDS011;53093;55.092;73.476;2022-10-22T07:50:29;33.03;;;11.20;;
63817;SDS011;53093;55.092;73.476;2022-10-22T07:52:56;36.10;;;14.07;;
63817;SDS011;53093;55.092;73.476;2022-10-22T07:55:23;7.82;;;4.88;;
63817;SDS011;53093;55.092;73.476;2022-10-22T07:57:50;29.70;;;12.73;;
63817;SDS011;53093;55.092;73.476;2022-10-22T08:00:17;9.40;;;5.03;;
63817;SDS011;53093;55.092;73.476;2022-10-22T08:02:45;4.80;;;3.53;;
63817;SDS011;53093;55.092;73.476;2022-10-22T08:05:12;5.78;;;4.20;;
63817;SDS011;53093;55.092;73.476;2022-10-22T08:07:39;10.38;;;6.43;;
63817;SDS011;53093;55.092;73.476;2022-10-22T08:10:12;6.30;;;5.35;;
63817;SDS011;53093;55.092;73.476;2022-10-22T08:12:39;9.73;;;7.75;;
63817;SDS011;53093;55.092;73.476;2022-10-22T08:15:12;5.47;;;4.75;;
63817;SDS011;53093;55.092;73.476;2022-10-22T08:17:39;5.60;;;4.18;;
63817;SDS011;53093;55.092;73.476;2022-10-22T08:20:06;8.38;;;4.50;;
63817;SDS011;53093;55.092;73.476;2022-10-22T08:22:33;6.05;;;4.30;;
63817;SDS011;53093;55.092;73.476;2022-10-22T08:25:00;7.95;;;4.07;;
63817;SDS011;53093;55.092;73.476;2022-10-22T08:27:27;6.25;;;4.07;;
63817;SDS011;53093;55.092;73.476;2022-10-22T08:29:54;5.78;;;4.10;;
63817;SDS011;53093;55.092;73.476;2022-10-22T08:32:21;6.80;;;4.53;;
63817;SDS011;53093;55.092;73.476;2022-10-22T08:34:47;4.28;;;3.60;;
63817;SDS011;53093;55.092;73.476;2022-10-22T08:37:14;4.28;;;3.45;;
63817;SDS011;53093;55.092;73.476;2022-10-22T08:39:43;5.18;;;4.03;;
63817;SDS011;53093;55.092;73.476;2022-10-22T08:47:30;5.03;;;3.45;;
63817;SDS011;53093;55.092;73.476;2022-10-22T08:50:01;4.95;;;3.80;;
63817;SDS011;53093;55.092;73.476;2022-10-22T08:52:28;4.60;;;4.10;;
63817;SDS011;53093;55.092;73.476;2022-10-22T08:54:56;5.55;;;4.50;;
63817;SDS011;53093;55.092;73.476;2022-10-22T09:08:01;11.70;;;7.10;;
63817;SDS011;53093;55.092;73.476;2022-10-22T09:10:28;6.22;;;5.05;;
63817;SDS011;53093;55.092;73.476;2022-10-22T09:12:57;10.35;;;8.05;;
63817;SDS011;53093;55.092;73.476;2022-10-22T09:15:32;15.45;;;10.15;;
63817;SDS011;53093;55.092;73.476;2022-10-22T09:21:13;28.90;;;18.77;;
63817;SDS011;53093;55.092;73.476;2022-10-22T09:26:14;12.60;;;9.95;;
63817;SDS011;53093;55.092;73.476;2022-10-22T09:28:41;8.63;;;6.65;;
63817;SDS011;53093;55.092;73.476;2022-10-22T09:31:13;12.65;;;7.75;;
63817;SDS011;53093;55.092;73.476;2022-10-22T09:33:41;10.55;;;8.23;;
63817;SDS011;53093;55.092;73.476;2022-10-22T09:36:16;12.30;;;8.57;;
63817;SDS011;53093;55.092;73.476;2022-10-22T09:38:45;20.83;;;13.90;;
63817;SDS011;53093;55.092;73.476;2022-10-22T09:41:12;51.58;;;32.05;;
63817;SDS011;53093;55.092;73.476;2022-10-22T09:43:39;253.15;;;149.40;;
63817;SDS011;53093;55.092;73.476;2022-10-22T09:46:07;70.40;;;44.08;;
63817;SDS011;53093;55.092;73.476;2022-10-22T09:48:40;235.30;;;130.95;;
63817;SDS011;53093;55.092;73.476;2022-10-22T09:51:19;231.00;;;126.70;;
63817;SDS011;53093;55.092;73.476;2022-10-22T09:53:54;242.40;;;152.80;;
63817;SDS011;53093;55.092;73.476;2022-10-22T09:56:33;108.75;;;72.85;;
63817;SDS011;53093;55.092;73.476;2022-10-22T09:59:03;111.32;;;62.08;;
63817;SDS011;53093;55.092;73.476;2022-10-22T10:01:34;101.72;;;64.32;;
63817;SDS011;53093;55.092;73.476;2022-10-22T10:04:02;26.10;;;18.98;;
63817;SDS011;53093;55.092;73.476;2022-10-22T10:06:30;42.78;;;29.55;;
63817;SDS011;53093;55.092;73.476;2022-10-22T10:08:57;35.15;;;24.73;;
63817;SDS011;53093;55.092;73.476;2022-10-22T10:11:31;75.63;;;50.83;;
63817;SDS011;53093;55.092;73.476;2022-10-22T10:14:05;48.70;;;37.92;;
63817;SDS011;53093;55.092;73.476;2022-10-22T10:27:10;12.52;;;9.77;;
63817;SDS011;53093;55.092;73.476;2022-10-22T10:30:05;9.90;;;8.18;;
63817;SDS011;53093;55.092;73.476;2022-10-22T10:35:18;8.60;;;6.65;;
63817;SDS011;53093;55.092;73.476;2022-10-22T10:40:35;11.18;;;8.15;;
63817;SDS011;53093;55.092;73.476;2022-10-22T10:43:12;13.02;;;9.23;;
63817;SDS011;53093;55.092;73.476;2022-10-22T10:45:43;12.40;;;9.13;;
63817;SDS011;53093;55.092;73.476;2022-10-22T10:53:34;12.43;;;9.73;;
63817;SDS011;53093;55.092;73.476;2022-10-22T10:59:14;19.20;;;11.25;;
63817;SDS011;53093;55.092;73.476;2022-10-22T11:04:23;13.98;;;9.18;;
63817;SDS011;53093;55.092;73.476;2022-10-22T11:06:52;13.50;;;10.73;;
63817;SDS011;53093;55.092;73.476;2022-10-22T11:09:26;12.30;;;9.40;;
63817;SDS011;53093;55.092;73.476;2022-10-22T11:11:59;21.00;;;14.00;;
63817;SDS011;53093;55.092;73.476;2022-10-22T11:14:32;20.48;;;14.07;;
63817;SDS011;53093;55.092;73.476;2022-10-22T11:17:15;19.85;;;14.55;;
63817;SDS011;53093;55.092;73.476;2022-10-22T11:19:47;20.98;;;13.05;;
63817;SDS011;53093;55.092;73.476;2022-10-22T11:22:19;21.75;;;11.80;;
63817;SDS011;53093;55.092;73.476;2022-10-22T11:29:51;21.88;;;14.05;;
63817;SDS011;53093;55.092;73.476;2022-10-22T11:32:20;22.25;;;12.88;;
63817;SDS011;53093;55.092;73.476;2022-10-22T11:34:53;20.35;;;13.73;;
63817;SDS011;53093;55.092;73.476;2022-10-22T11:37:21;21.88;;;14.57;;
63817;SDS011;53093;55.092;73.476;2022-10-22T11:39:52;25.58;;;17.13;;
63817;SDS011;53093;55.092;73.476;2022-10-22T11:43:06;39.92;;;22.70;;
63817;SDS011;53093;55.092;73.476;2022-10-22T11:47:52;35.92;;;20.77;;
63817;SDS011;53093;55.092;73.476;2022-10-22T11:52:59;37.00;;;24.15;;
63817;SDS011;53093;55.092;73.476;2022-10-22T11:58:24;30.52;;;21.13;;
63817;SDS011;53093;55.092;73.476;2022-10-22T12:00:51;23.67;;;15.82;;
63817;SDS011;53093;55.092;73.476;2022-10-22T12:06:48;26.92;;;17.13;;
63817;SDS011;53093;55.092;73.476;2022-10-22T12:16:25;42.00;;;26.08;;
63817;SDS011;53093;55.092;73.476;2022-10-22T12:18:56;26.63;;;17.38;;
63817;SDS011;53093;55.092;73.476;2022-10-22T12:21:24;29.92;;;18.13;;
63817;SDS011;53093;55.092;73.476;2022-10-22T12:23:51;31.35;;;20.52;;
63817;SDS011;53093;55.092;73.476;2022-10-22T12:26:25;28.58;;;17.65;;
63817;SDS011;53093;55.092;73.476;2022-10-22T12:28:58;28.02;;;17.10;;
63817;SDS011;53093;55.092;73.476;2022-10-22T12:31:25;30.60;;;20.15;;
63817;SDS011;53093;55.092;73.476;2022-10-22T12:33:58;28.38;;;17.73;;
63817;SDS011;53093;55.092;73.476;2022-10-22T12:36:35;25.60;;;16.02;;
63817;SDS011;53093;55.092;73.476;2022-10-22T12:39:09;24.10;;;14.60;;
63817;SDS011;53093;55.092;73.476;2022-10-22T12:41:41;25.35;;;17.08;;
63817;SDS011;53093;55.092;73.476;2022-10-22T12:44:15;23.42;;;15.10;;
63817;SDS011;53093;55.092;73.476;2022-10-22T12:46:43;24.88;;;15.70;;
63817;SDS011;53093;55.092;73.476;2022-10-22T12:49:53;26.23;;;17.45;;
63817;SDS011;53093;55.092;73.476;2022-10-22T12:52:05;25.00;;;15.75;;
63817;SDS011;53093;55.092;73.476;2022-10-22T12:54:33;28.60;;;18.55;;
63817;SDS011;53093;55.092;73.476;2022-10-22T12:57:00;26.25;;;16.73;;
63817;SDS011;53093;55.092;73.476;2022-10-22T12:59:28;27.15;;;17.95;;
63817;SDS011;53093;55.092;73.476;2022-10-22T13:01:56;22.77;;;15.55;;
63817;SDS011;53093;55.092;73.476;2022-10-22T13:04:36;22.17;;;13.40;;
63817;SDS011;53093;55.092;73.476;2022-10-22T13:07:15;21.73;;;14.75;;
63817;SDS011;53093;55.092;73.476;2022-10-22T13:09:44;22.60;;;13.25;;
63817;SDS011;53093;55.092;73.476;2022-10-22T13:12:11;21.98;;;13.98;;
63817;SDS011;53093;55.092;73.476;2022-10-22T13:14:43;25.10;;;16.02;;
63817;SDS011;53093;55.092;73.476;2022-10-22T13:17:14;24.15;;;15.13;;
63817;SDS011;53093;55.092;73.476;2022-10-22T13:19:46;24.83;;;15.52;;
63817;SDS011;53093;55.092;73.476;2022-10-22T13:27:30;20.92;;;12.32;;
63817;SDS011;53093;55.092;73.476;2022-10-22T13:30:09;19.83;;;11.25;;
63817;SDS011;53093;55.092;73.476;2022-10-22T13:32:36;22.80;;;13.82;;
63817;SDS011;53093;55.092;73.476;2022-10-22T13:35:05;20.45;;;13.00;;
63817;SDS011;53093;55.092;73.476;2022-10-22T13:37:32;20.38;;;12.65;;
63817;SDS011;53093;55.092;73.476;2022-10-22T13:40:04;19.02;;;12.18;;
63817;SDS011;53093;55.092;73.476;2022-10-22T13:42:34;22.80;;;13.65;;
63817;SDS011;53093;55.092;73.476;2022-10-22T13:45:01;24.50;;;15.50;;
63817;SDS011;53093;55.092;73.476;2022-10-22T13:47:28;22.67;;;14.63;;
63817;SDS011;53093;55.092;73.476;2022-10-22T13:49:56;22.98;;;14.45;;
63817;SDS011;53093;55.092;73.476;2022-10-22T13:52:28;28.42;;;17.25;;
63817;SDS011;53093;55.092;73.476;2022-10-22T13:55:19;24.75;;;14.93;;
63817;SDS011;53093;55.092;73.476;2022-10-22T13:57:47;25.98;;;16.48;;
63817;SDS011;53093;55.092;73.476;2022-10-22T14:00:20;25.95;;;14.70;;
63817;SDS011;53093;55.092;73.476;2022-10-22T14:02:51;25.98;;;15.57;;
63817;SDS011;53093;55.092;73.476;2022-10-22T14:05:20;26.80;;;16.88;;
63817;SDS011;53093;55.092;73.476;2022-10-22T14:07:55;28.27;;;16.55;;
63817;SDS011;53093;55.092;73.476;2022-10-22T14:10:24;29.20;;;17.08;;
63817;SDS011;53093;55.092;73.476;2022-10-22T14:12:51;28.00;;;15.55;;
63817;SDS011;53093;55.092;73.476;2022-10-22T14:15:19;26.48;;;15.75;;
63817;SDS011;53093;55.092;73.476;2022-10-22T14:17:48;30.08;;;16.80;;
63817;SDS011;53093;55.092;73.476;2022-10-22T14:20:16;30.38;;;18.05;;
63817;SDS011;53093;55.092;73.476;2022-10-22T14:22:45;28.38;;;16.40;;
63817;SDS011;53093;55.092;73.476;2022-10-22T14:25:16;29.35;;;17.42;;
63817;SDS011;53093;55.092;73.476;2022-10-22T14:27:43;29.40;;;17.75;;
63817;SDS011;53093;55.092;73.476;2022-10-22T14:30:17;30.92;;;18.13;;
63817;SDS011;53093;55.092;73.476;2022-10-22T14:32:50;24.67;;;15.32;;
63817;SDS011;53093;55.092;73.476;2022-10-22T14:35:18;31.30;;;18.10;;
63817;SDS011;53093;55.092;73.476;2022-10-22T14:37:45;32.28;;;19.10;;
63817;SDS011;53093;55.092;73.476;2022-10-22T14:40:13;30.83;;;18.70;;
63817;SDS011;53093;55.092;73.476;2022-10-22T14:42:41;29.65;;;17.10;;
63817;SDS011;53093;55.092;73.476;2022-10-22T14:45:12;44.85;;;25.70;;
63817;SDS011;53093;55.092;73.476;2022-10-22T14:47:39;30.17;;;17.55;;
63817;SDS011;53093;55.092;73.476;2022-10-22T14:50:06;32.88;;;18.95;;
63817;SDS011;53093;55.092;73.476;2022-10-22T14:52:33;31.13;;;17.55;;
63817;SDS011;53093;55.092;73.476;2022-10-22T14:55:11;33.47;;;17.52;;
63817;SDS011;53093;55.092;73.476;2022-10-22T14:57:38;32.10;;;17.02;;
63817;SDS011;53093;55.092;73.476;2022-10-22T15:00:15;32.38;;;18.88;;
63817;SDS011;53093;55.092;73.476;2022-10-22T15:02:43;31.98;;;19.17;;
63817;SDS011;53093;55.092;73.476;2022-10-22T15:05:10;29.35;;;16.92;;
63817;SDS011;53093;55.092;73.476;2022-10-22T15:07:37;29.05;;;16.58;;
63817;SDS011;53093;55.092;73.476;2022-10-22T15:10:04;28.85;;;17.85;;
63817;SDS011;53093;55.092;73.476;2022-10-22T15:12:31;32.42;;;18.70;;
63817;SDS011;53093;55.092;73.476;2022-10-22T15:15:09;31.23;;;16.90;;
63817;SDS011;53093;55.092;73.476;2022-10-22T15:17:36;28.65;;;17.00;;
63817;SDS011;53093;55.092;73.476;2022-10-22T15:20:03;27.80;;;16.85;;
63817;SDS011;53093;55.092;73.476;2022-10-22T15:22:31;30.08;;;18.25;;
63817;SDS011;53093;55.092;73.476;2022-10-22T15:25:10;32.60;;;17.27;;
63817;SDS011;53093;55.092;73.476;2022-10-22T15:27:38;30.30;;;18.25;;
63817;SDS011;53093;55.092;73.476;2022-10-22T15:30:05;31.15;;;17.88;;
63817;SDS011;53093;55.092;73.476;2022-10-22T15:32:33;29.85;;;17.90;;
63817;SDS011;53093;55.092;73.476;2022-10-22T15:35:00;27.70;;;16.50;;
63817;SDS011;53093;55.092;73.476;2022-10-22T15:37:27;31.88;;;17.35;;
63817;SDS011;53093;55.092;73.476;2022-10-22T15:39:54;28.05;;;16.23;;
63817;SDS011;53093;55.092;73.476;2022-10-22T15:42:21;32.00;;;17.85;;
63817;SDS011;53093;55.092;73.476;2022-10-22T15:44:51;26.08;;;16.08;;
63817;SDS011;53093;55.092;73.476;2022-10-22T15:47:22;30.15;;;17.00;;
63817;SDS011;53093;55.092;73.476;2022-10-22T15:50:01;29.30;;;16.90;;
63817;SDS011;53093;55.092;73.476;2022-10-22T15:52:28;29.25;;;16.00;;
63817;SDS011;53093;55.092;73.476;2022-10-22T15:54:55;30.35;;;16.48;;
63817;SDS011;53093;55.092;73.476;2022-10-22T15:57:22;30.58;;;17.38;;
63817;SDS011;53093;55.092;73.476;2022-10-22T15:59:49;28.42;;;16.42;;
63817;SDS011;53093;55.092;73.476;2022-10-22T16:02:17;23.75;;;14.75;;
63817;SDS011;53093;55.092;73.476;2022-10-22T16:04:54;32.03;;;17.65;;
63817;SDS011;53093;55.092;73.476;2022-10-22T16:07:26;25.50;;;15.18;;
63817;SDS011;53093;55.092;73.476;2022-10-22T16:09:57;26.20;;;15.38;;
63817;SDS011;53093;55.092;73.476;2022-10-22T16:12:29;26.23;;;15.32;;
63817;SDS011;53093;55.092;73.476;2022-10-22T16:15:07;29.83;;;15.65;;
63817;SDS011;53093;55.092;73.476;2022-10-22T16:17:44;23.63;;;13.75;;
63817;SDS011;53093;55.092;73.476;2022-10-22T16:20:11;28.17;;;16.30;;
63817;SDS011;53093;55.092;73.476;2022-10-22T16:22:38;29.42;;;16.80;;
63817;SDS011;53093;55.092;73.476;2022-10-22T16:25:06;25.48;;;15.45;;
63817;SDS011;53093;55.092;73.476;2022-10-22T16:27:33;27.17;;;15.10;;
63817;SDS011;53093;55.092;73.476;2022-10-22T16:30:06;23.10;;;14.35;;